createdAt,value
2023-03-25T00:03:45.798Z,44.2
2023-03-25T00:09:03.790Z,44.4
2023-03-25T00:14:22.305Z,44
2023-03-25T00:19:40.380Z,44
2023-03-25T00:24:58.741Z,44.7
2023-03-25T00:30:17.270Z,44.3
2023-03-25T00:35:35.858Z,45.1
2023-03-25T00:40:54.382Z,45
2023-03-25T00:46:12.466Z,45
2023-03-25T00:49:43.024Z,46.1
2023-03-25T00:55:01.537Z,45.7
2023-03-25T01:00:19.714Z,44.8
2023-03-25T01:05:38.251Z,45.7
2023-03-25T01:10:56.156Z,45.5
2023-03-25T01:15:58.969Z,45.9
2023-03-25T01:21:17.326Z,45.8
2023-03-25T01:26:35.459Z,45.5
2023-03-25T01:31:53.975Z,45.7
2023-03-25T01:37:12.368Z,45.4
2023-03-25T01:42:30.876Z,46
2023-03-25T01:47:49.515Z,45.3
2023-03-25T01:53:08.071Z,45.8
2023-03-25T01:58:26.563Z,46.6
2023-03-25T02:03:45.037Z,45.7
2023-03-25T02:09:03.241Z,47.2
2023-03-25T02:14:21.559Z,47.1
2023-03-25T02:19:40.062Z,47.3
2023-03-25T02:24:58.498Z,47.2
2023-03-25T02:30:16.806Z,46.9
2023-03-25T02:35:35.048Z,47.2
2023-03-25T02:40:53.479Z,47.5
2023-03-25T02:46:11.754Z,46.4
2023-03-25T02:51:29.878Z,47.4
2023-03-25T02:56:48.211Z,47.6
2023-03-25T03:02:06.726Z,46.8
2023-03-25T03:07:24.841Z,47.2
2023-03-25T03:12:43.314Z,47
2023-03-25T03:18:01.733Z,48.2
2023-03-25T03:23:20.255Z,48
2023-03-25T03:28:38.746Z,48.4
2023-03-25T03:33:57.047Z,47.9
2023-03-25T03:39:15.178Z,49
2023-03-25T03:44:33.543Z,47.8
2023-03-25T03:49:51.620Z,48.3
2023-03-25T03:55:09.894Z,46.9
2023-03-25T04:00:28.391Z,46.9
2023-03-25T04:05:46.655Z,47
2023-03-25T04:11:04.939Z,47.5
2023-03-25T04:16:23.203Z,48
2023-03-25T04:21:41.357Z,47.8
2023-03-25T04:26:59.644Z,47.7
2023-03-25T04:32:17.990Z,46.6
2023-03-25T04:37:36.081Z,46.9
2023-03-25T04:42:54.450Z,47.1
2023-03-25T04:48:12.720Z,46.8
2023-03-25T04:53:30.852Z,46.6
2023-03-25T04:58:49.321Z,47.5
2023-03-25T05:04:08.057Z,46.7
2023-03-25T05:09:26.120Z,47.6
2023-03-25T05:14:44.422Z,47.9
2023-03-25T05:20:02.946Z,48.2
2023-03-25T05:25:21.386Z,47.4
2023-03-25T05:30:39.795Z,48.6
2023-03-25T05:35:58.272Z,47.6
2023-03-25T05:41:16.361Z,47.7
2023-03-25T05:46:34.462Z,47.5
2023-03-25T05:51:53.579Z,48.1
2023-03-25T05:57:11.709Z,47.2
2023-03-25T06:02:30.066Z,47.8
2023-03-25T06:07:48.807Z,46.9
2023-03-25T06:13:07.057Z,47.1
2023-03-25T06:18:25.633Z,46.6
2023-03-25T06:23:43.794Z,47.5
2023-03-25T06:29:01.713Z,46.6
2023-03-25T06:34:23.701Z,47.6
2023-03-25T06:39:41.867Z,47.6
2023-03-25T06:45:00.251Z,46.8
2023-03-25T06:50:18.724Z,47.6
2023-03-25T06:55:37.035Z,47.7
2023-03-25T07:00:55.387Z,47.4
2023-03-25T07:06:13.476Z,47.5
2023-03-25T07:11:34.949Z,46.7
2023-03-25T07:16:53.030Z,46.7
2023-03-25T07:22:11.312Z,46.7
2023-03-25T07:27:29.254Z,47
2023-03-25T07:32:47.270Z,47.1
2023-03-25T07:38:05.377Z,46.2
2023-03-25T07:43:23.956Z,46.1
2023-03-25T07:48:42.206Z,46.2
2023-03-25T07:54:06.612Z,46.9
2023-03-25T07:59:26.956Z,47
2023-03-25T08:04:47.071Z,46.7
2023-03-25T08:10:05.155Z,46.5
2023-03-25T08:15:23.340Z,43.3
2023-03-25T08:20:41.866Z,36.2
2023-03-25T08:26:00.252Z,35
2023-03-25T08:31:18.791Z,37.9
2023-03-25T08:36:37.047Z,36.5
2023-03-25T08:41:56.503Z,35.7
2023-03-25T08:47:14.976Z,35.7
2023-03-25T08:52:33.452Z,37.5
2023-03-25T08:57:51.836Z,37.6
2023-03-25T09:03:10.145Z,36.9
2023-03-25T09:08:28.684Z,34.2
2023-03-25T09:13:46.960Z,34.4
2023-03-25T09:19:05.344Z,37.2
2023-03-25T09:24:23.826Z,35.6
2023-03-25T09:29:42.314Z,35.8
2023-03-25T09:35:00.765Z,37.6
2023-03-25T09:40:19.257Z,38.4
2023-03-25T09:45:37.885Z,37.9
2023-03-25T09:50:56.237Z,39.8
2023-03-25T09:56:14.531Z,38.8
2023-03-25T10:01:33.084Z,37.5
2023-03-25T10:06:51.474Z,37.1
2023-03-25T10:12:09.387Z,36.4
2023-03-25T10:17:27.656Z,38.9
2023-03-25T10:22:45.892Z,34.9
2023-03-25T10:28:04.155Z,36.4
2023-03-25T10:33:22.759Z,34.4
2023-03-25T10:38:41.110Z,33.1
2023-03-25T10:43:59.397Z,34.7
2023-03-25T10:49:17.792Z,33.3
2023-03-25T10:54:35.984Z,33.2
2023-03-25T10:59:54.154Z,33.7
2023-03-25T11:05:12.257Z,33.5
2023-03-25T11:10:30.407Z,32.7
2023-03-25T11:15:49.249Z,33.2
2023-03-25T11:21:07.640Z,34.2
2023-03-25T11:26:26.002Z,35.6
2023-03-25T11:31:44.522Z,36
2023-03-25T11:37:02.600Z,37.3
2023-03-25T11:42:20.968Z,37.7
2023-03-25T11:47:39.173Z,37.3
2023-03-25T11:52:57.246Z,37.5
2023-03-25T11:58:15.919Z,37.2
2023-03-25T12:03:34.179Z,37.5
2023-03-25T12:08:53.416Z,37.6
2023-03-25T12:14:11.606Z,38.4
2023-03-25T12:19:29.694Z,37.9
2023-03-25T12:24:48.189Z,38.3
2023-03-25T12:30:07.175Z,37.9
2023-03-25T12:35:25.712Z,39.1
2023-03-25T12:40:43.993Z,39.1
2023-03-25T12:46:02.709Z,39
2023-03-25T12:51:20.825Z,39.4
2023-03-25T12:56:39.342Z,38.5
2023-03-25T13:01:57.412Z,39.4
2023-03-25T13:07:15.762Z,38.3
2023-03-25T13:12:33.927Z,39.2
2023-03-25T13:17:52.498Z,39.1
2023-03-25T13:23:11.017Z,38.4
2023-03-25T13:28:29.103Z,39.2
2023-03-25T13:33:48.661Z,38.4
2023-03-25T13:39:06.739Z,39.1
2023-03-25T13:44:24.809Z,39.1
2023-03-25T13:49:42.764Z,38.2
2023-03-25T13:55:01.348Z,37
2023-03-25T14:00:25.409Z,36.7
2023-03-25T14:05:43.855Z,37.3
2023-03-25T14:11:02.191Z,38.2
2023-03-25T14:16:20.627Z,38.3
2023-03-25T14:21:39.353Z,38
2023-03-25T14:26:57.834Z,37
2023-03-25T14:32:16.181Z,36.4
2023-03-25T14:37:34.081Z,37.5
2023-03-25T14:42:52.337Z,38.5
2023-03-25T14:48:26.261Z,37.3
2023-03-25T14:53:44.367Z,39.1
2023-03-25T14:59:02.858Z,39.5
2023-03-25T15:04:21.132Z,41.1
2023-03-25T15:09:39.297Z,42.3
2023-03-25T15:14:57.824Z,42.3
2023-03-25T15:20:16.335Z,42.8
2023-03-25T15:25:34.758Z,43.7
2023-03-25T15:30:53.611Z,42.5
2023-03-25T15:36:11.766Z,44.1
2023-03-25T15:41:30.473Z,41.6
2023-03-25T15:46:48.732Z,40.6
2023-03-25T15:52:06.871Z,41.9
2023-03-25T15:57:25.571Z,42.6
2023-03-25T16:02:45.098Z,41.5
2023-03-25T16:08:02.988Z,40.8
2023-03-25T16:13:20.927Z,39.2
2023-03-25T16:18:39.169Z,39.4
2023-03-25T16:23:57.451Z,40.2
2023-03-25T16:29:16.085Z,40.8
2023-03-25T16:34:34.582Z,41
2023-03-25T16:39:52.678Z,40.9
2023-03-25T16:45:14.782Z,40.7
2023-03-25T16:50:32.855Z,39.7
2023-03-25T16:55:51.132Z,41.5
2023-03-25T17:01:09.436Z,41.5
2023-03-25T17:06:27.781Z,42.8
2023-03-25T17:11:46.073Z,42.3
2023-03-25T17:17:05.693Z,43
2023-03-25T17:22:24.751Z,43.8
2023-03-25T17:27:45.247Z,43.3
2023-03-25T17:33:03.883Z,43.9
2023-03-25T17:38:22.012Z,42.9
2023-03-25T17:43:40.302Z,43.3
2023-03-25T17:48:58.801Z,44.2
2023-03-25T17:54:17.089Z,44.2
2023-03-25T17:59:36.623Z,43.8
2023-03-25T18:04:54.981Z,44.5
2023-03-25T18:10:13.228Z,44.6
2023-03-25T18:15:31.513Z,44.5
2023-03-25T18:20:50.198Z,44
2023-03-25T18:26:08.927Z,44.3
2023-03-25T18:31:27.180Z,43.8
2023-03-25T18:36:45.671Z,44.7
2023-03-25T18:42:04.966Z,44
2023-03-25T18:47:24.513Z,46.2
2023-03-25T18:52:42.668Z,45.5
2023-03-25T18:58:00.795Z,45.5
2023-03-25T19:03:19.313Z,46
2023-03-25T19:08:37.935Z,46
2023-03-25T19:13:56.375Z,46.1
2023-03-25T19:19:14.657Z,45.1
2023-03-25T19:24:32.961Z,45.6
2023-03-25T19:29:51.224Z,45.2
2023-03-25T19:35:09.382Z,45.6
2023-03-25T19:40:27.460Z,44.7
2023-03-25T19:45:45.967Z,44.6
2023-03-25T19:51:04.707Z,44.7
2023-03-25T19:56:23.796Z,45.5
2023-03-25T20:01:41.981Z,45.2
2023-03-25T20:07:00.264Z,45
2023-03-25T20:12:18.237Z,45
2023-03-25T20:17:36.413Z,45.1
2023-03-25T20:22:54.712Z,44.4
2023-03-25T20:28:13.022Z,44.4
2023-03-25T20:33:31.237Z,44.6
2023-03-25T20:38:58.451Z,44.5
2023-03-25T20:44:16.912Z,45.1
2023-03-25T20:49:35.416Z,44.7
2023-03-25T20:54:53.810Z,45.7
2023-03-25T21:00:12.345Z,45.3
2023-03-25T21:05:30.430Z,45.4
2023-03-25T21:10:48.901Z,45.4
2023-03-25T21:16:07.331Z,45.2
2023-03-25T21:21:25.629Z,45.4
2023-03-25T21:26:43.956Z,45.8
2023-03-25T21:32:02.388Z,45.7
2023-03-25T21:37:20.279Z,46
2023-03-25T21:42:38.343Z,45.6
2023-03-25T21:47:56.875Z,45.7
2023-03-25T21:53:15.196Z,46.6
2023-03-25T21:58:33.520Z,46.7
2023-03-25T22:03:51.850Z,46.2
2023-03-25T22:09:10.175Z,46.5
2023-03-25T22:14:28.505Z,46.7
2023-03-25T22:19:46.413Z,46.1
2023-03-25T22:25:04.684Z,45.9
2023-03-25T22:30:22.569Z,45.8
2023-03-25T22:35:40.768Z,46.5
2023-03-25T22:40:59.036Z,45.8
2023-03-25T22:46:17.381Z,46.6
2023-03-25T22:51:35.733Z,45.9
2023-03-25T22:56:54.126Z,45.8
2023-03-25T23:02:12.255Z,46.4
2023-03-25T23:07:30.605Z,45.9
2023-03-25T23:12:48.850Z,46
2023-03-25T23:18:07.294Z,46.6
2023-03-25T23:23:26.713Z,46.5
2023-03-25T23:28:45.449Z,45.8
2023-03-25T23:34:04.237Z,45.9
2023-03-25T23:39:22.580Z,45.8
2023-03-25T23:44:40.858Z,46.5
2023-03-25T23:49:58.937Z,46.3
2023-03-25T23:55:17.120Z,45.8
